sensor_id;sensor_type;location;lat;lon;timestamp;pressure;altitude;pressure_sealevel;temperature;humidity
75594;BME280;64176;49.156;7.810;2024-02-21T00:00:55;100170.28;;;5.38;100.00
75594;BME280;64176;49.156;7.810;2024-02-21T00:03:39;100158.59;;;5.44;100.00
75594;BME280;64176;49.156;7.810;2024-02-21T00:06:26;100164.28;;;5.37;100.00
75594;BME280;64176;49.156;7.810;2024-02-21T00:09:15;100154.41;;;5.46;100.00
75594;BME280;64176;49.156;7.810;2024-02-21T00:11:59;100146.78;;;5.27;100.00
75594;BME280;64176;49.156;7.810;2024-02-21T00:14:45;100155.34;;;5.28;100.00
75594;BME280;64176;49.156;7.810;2024-02-21T00:17:29;100149.78;;;5.38;100.00
75594;BME280;64176;49.156;7.810;2024-02-21T00:20:13;100150.34;;;5.31;100.00
75594;BME280;64176;49.156;7.810;2024-02-21T00:22:57;100135.22;;;5.37;100.00
75594;BME280;64176;49.156;7.810;2024-02-21T00:25:41;100122.53;;;5.40;100.00
75594;BME280;64176;49.156;7.810;2024-02-21T00:28:25;100133.09;;;5.47;100.00
75594;BME280;64176;49.156;7.810;2024-02-21T00:31:09;100127.06;;;5.47;100.00
75594;BME280;64176;49.156;7.810;2024-02-21T00:33:53;100129.34;;;5.39;100.00
75594;BME280;64176;49.156;7.810;2024-02-21T00:36:39;100122.28;;;5.34;100.00
75594;BME280;64176;49.156;7.810;2024-02-21T00:39:26;100113.63;;;5.32;100.00
75594;BME280;64176;49.156;7.810;2024-02-21T00:42:10;100111.22;;;5.35;100.00
75594;BME280;64176;49.156;7.810;2024-02-21T00:44:54;100105.44;;;5.18;100.00
75594;BME280;64176;49.156;7.810;2024-02-21T00:47:38;100101.84;;;5.15;100.00
75594;BME280;64176;49.156;7.810;2024-02-21T00:50:22;100089.41;;;5.24;100.00
75594;BME280;64176;49.156;7.810;2024-02-21T00:53:08;100091.34;;;5.29;100.00
75594;BME280;64176;49.156;7.810;2024-02-21T00:55:53;100080.72;;;5.20;100.00
75594;BME280;64176;49.156;7.810;2024-02-21T00:58:38;100085.09;;;5.23;100.00
75594;BME280;64176;49.156;7.810;2024-02-21T01:01:23;100073.88;;;5.19;100.00
75594;BME280;64176;49.156;7.810;2024-02-21T01:04:09;100077.41;;;5.23;100.00
75594;BME280;64176;49.156;7.810;2024-02-21T01:06:53;100078.31;;;5.02;100.00
75594;BME280;64176;49.156;7.810;2024-02-21T01:09:37;100070.91;;;4.89;100.00
75594;BME280;64176;49.156;7.810;2024-02-21T01:12:21;100062.31;;;5.08;100.00
75594;BME280;64176;49.156;7.810;2024-02-21T01:15:07;100060.72;;;5.11;100.00
75594;BME280;64176;49.156;7.810;2024-02-21T01:17:52;100055.53;;;5.10;100.00
75594;BME280;64176;49.156;7.810;2024-02-21T01:20:40;100059.69;;;5.06;100.00
75594;BME280;64176;49.156;7.810;2024-02-21T01:23:24;100062.34;;;5.09;100.00
75594;BME280;64176;49.156;7.810;2024-02-21T01:26:08;100069.06;;;4.85;100.00
75594;BME280;64176;49.156;7.810;2024-02-21T01:28:52;100066.59;;;4.88;100.00
75594;BME280;64176;49.156;7.810;2024-02-21T01:31:36;100066.00;;;4.94;100.00
75594;BME280;64176;49.156;7.810;2024-02-21T01:34:20;100060.59;;;5.08;100.00
75594;BME280;64176;49.156;7.810;2024-02-21T01:37:04;100065.63;;;5.05;100.00
75594;BME280;64176;49.156;7.810;2024-02-21T01:39:55;100059.19;;;4.94;100.00
75594;BME280;64176;49.156;7.810;2024-02-21T01:42:39;100061.03;;;4.98;100.00
75594;BME280;64176;49.156;7.810;2024-02-21T01:45:29;100044.38;;;4.87;100.00
75594;BME280;64176;49.156;7.810;2024-02-21T01:48:13;100046.63;;;5.00;100.00
75594;BME280;64176;49.156;7.810;2024-02-21T01:51:00;100050.69;;;4.95;100.00
75594;BME280;64176;49.156;7.810;2024-02-21T01:53:46;100050.31;;;4.86;100.00
75594;BME280;64176;49.156;7.810;2024-02-21T01:56:30;100040.31;;;4.92;100.00
75594;BME280;64176;49.156;7.810;2024-02-21T01:59:15;100021.88;;;5.01;100.00
75594;BME280;64176;49.156;7.810;2024-02-21T02:02:02;100019.19;;;4.98;100.00
75594;BME280;64176;49.156;7.810;2024-02-21T02:04:47;100013.91;;;4.93;100.00
75594;BME280;64176;49.156;7.810;2024-02-21T02:07:31;100009.97;;;4.81;100.00
75594;BME280;64176;49.156;7.810;2024-02-21T02:10:18;100016.63;;;4.98;100.00
75594;BME280;64176;49.156;7.810;2024-02-21T02:13:04;100026.94;;;4.79;100.00
75594;BME280;64176;49.156;7.810;2024-02-21T02:15:50;100026.72;;;4.93;100.00
75594;BME280;64176;49.156;7.810;2024-02-21T02:18:34;100018.16;;;4.93;100.00
75594;BME280;64176;49.156;7.810;2024-02-21T02:21:39;100005.78;;;4.83;100.00
75594;BME280;64176;49.156;7.810;2024-02-21T02:24:26;100023.28;;;4.93;100.00
75594;BME280;64176;49.156;7.810;2024-02-21T02:27:10;100012.75;;;4.87;100.00
75594;BME280;64176;49.156;7.810;2024-02-21T02:29:54;100000.47;;;4.78;100.00
75594;BME280;64176;49.156;7.810;2024-02-21T02:32:44;99980.00;;;4.78;100.00
75594;BME280;64176;49.156;7.810;2024-02-21T02:35:28;99978.13;;;4.74;100.00
75594;BME280;64176;49.156;7.810;2024-02-21T02:38:12;99972.56;;;4.84;100.00
75594;BME280;64176;49.156;7.810;2024-02-21T02:40:57;99959.28;;;4.72;100.00
75594;BME280;64176;49.156;7.810;2024-02-21T02:43:43;99960.66;;;4.86;100.00
75594;BME280;64176;49.156;7.810;2024-02-21T02:46:30;99951.94;;;4.81;100.00
75594;BME280;64176;49.156;7.810;2024-02-21T02:49:14;99952.47;;;4.72;100.00
75594;BME280;64176;49.156;7.810;2024-02-21T02:51:58;99954.75;;;4.87;100.00
75594;BME280;64176;49.156;7.810;2024-02-21T02:54:45;99948.44;;;4.79;100.00
75594;BME280;64176;49.156;7.810;2024-02-21T02:57:29;99945.56;;;4.92;100.00
75594;BME280;64176;49.156;7.810;2024-02-21T03:00:15;99942.34;;;4.98;100.00
75594;BME280;64176;49.156;7.810;2024-02-21T03:02:59;99933.84;;;4.99;100.00
75594;BME280;64176;49.156;7.810;2024-02-21T03:05:48;99930.59;;;4.81;100.00
75594;BME280;64176;49.156;7.810;2024-02-21T03:08:35;99933.84;;;4.76;100.00
75594;BME280;64176;49.156;7.810;2024-02-21T03:11:21;99928.88;;;4.59;100.00
75594;BME280;64176;49.156;7.810;2024-02-21T03:14:12;99928.94;;;4.60;100.00
75594;BME280;64176;49.156;7.810;2024-02-21T03:16:59;99925.44;;;4.58;100.00
75594;BME280;64176;49.156;7.810;2024-02-21T03:19:43;99923.53;;;4.53;100.00
75594;BME280;64176;49.156;7.810;2024-02-21T03:22:27;99917.28;;;4.46;100.00
75594;BME280;64176;49.156;7.810;2024-02-21T03:25:11;99917.13;;;4.43;100.00
75594;BME280;64176;49.156;7.810;2024-02-21T03:27:56;99916.53;;;4.49;100.00
75594;BME280;64176;49.156;7.810;2024-02-21T03:30:40;99920.63;;;4.45;100.00
75594;BME280;64176;49.156;7.810;2024-02-21T03:33:24;99923.50;;;4.32;100.00
75594;BME280;64176;49.156;7.810;2024-02-21T03:36:13;99920.78;;;4.27;100.00
75594;BME280;64176;49.156;7.810;2024-02-21T03:39:00;99915.28;;;4.18;100.00
75594;BME280;64176;49.156;7.810;2024-02-21T03:41:47;99907.13;;;4.27;100.00
75594;BME280;64176;49.156;7.810;2024-02-21T03:44:31;99915.78;;;4.30;100.00
75594;BME280;64176;49.156;7.810;2024-02-21T03:47:18;99916.78;;;4.13;100.00
75594;BME280;64176;49.156;7.810;2024-02-21T03:50:02;99911.47;;;4.09;100.00
75594;BME280;64176;49.156;7.810;2024-02-21T03:52:48;99912.72;;;3.97;100.00
75594;BME280;64176;49.156;7.810;2024-02-21T03:55:35;99922.88;;;3.96;100.00
75594;BME280;64176;49.156;7.810;2024-02-21T03:58:19;99922.44;;;4.06;100.00
75594;BME280;64176;49.156;7.810;2024-02-21T04:01:03;99925.75;;;4.03;100.00
75594;BME280;64176;49.156;7.810;2024-02-21T04:03:49;99921.00;;;3.92;100.00
75594;BME280;64176;49.156;7.810;2024-02-21T04:06:33;99921.66;;;3.88;100.00
75594;BME280;64176;49.156;7.810;2024-02-21T04:09:18;99916.03;;;3.76;100.00
75594;BME280;64176;49.156;7.810;2024-02-21T04:12:02;99906.63;;;3.75;100.00
75594;BME280;64176;49.156;7.810;2024-02-21T04:14:49;99896.28;;;3.72;100.00
75594;BME280;64176;49.156;7.810;2024-02-21T04:17:36;99896.19;;;3.70;100.00
75594;BME280;64176;49.156;7.810;2024-02-21T04:20:20;99897.63;;;3.63;100.00
75594;BME280;64176;49.156;7.810;2024-02-21T04:23:09;99910.19;;;3.59;100.00
75594;BME280;64176;49.156;7.810;2024-02-21T04:25:53;99905.28;;;3.63;100.00
75594;BME280;64176;49.156;7.810;2024-02-21T04:28:39;99899.34;;;3.64;100.00
75594;BME280;64176;49.156;7.810;2024-02-21T04:31:23;99894.53;;;3.51;100.00
75594;BME280;64176;49.156;7.810;2024-02-21T04:34:08;99894.16;;;3.42;100.00
75594;BME280;64176;49.156;7.810;2024-02-21T04:36:52;99890.16;;;3.49;100.00
75594;BME280;64176;49.156;7.810;2024-02-21T04:39:36;99886.59;;;3.45;100.00
75594;BME280;64176;49.156;7.810;2024-02-21T04:42:23;99862.72;;;3.45;100.00
75594;BME280;64176;49.156;7.810;2024-02-21T04:45:07;99868.25;;;3.35;100.00
75594;BME280;64176;49.156;7.810;2024-02-21T04:47:53;99861.72;;;3.22;100.00
75594;BME280;64176;49.156;7.810;2024-02-21T04:50:40;99854.81;;;3.19;100.00
75594;BME280;64176;49.156;7.810;2024-02-21T04:53:25;99864.97;;;3.18;100.00
75594;BME280;64176;49.156;7.810;2024-02-21T04:56:11;99863.28;;;3.18;100.00
75594;BME280;64176;49.156;7.810;2024-02-21T04:58:58;99859.31;;;3.25;100.00
75594;BME280;64176;49.156;7.810;2024-02-21T05:01:44;99858.25;;;3.20;100.00
75594;BME280;64176;49.156;7.810;2024-02-21T05:04:28;99854.94;;;3.22;100.00
75594;BME280;64176;49.156;7.810;2024-02-21T05:07:14;99837.59;;;3.15;100.00
75594;BME280;64176;49.156;7.810;2024-02-21T05:09:58;99841.22;;;3.20;100.00
75594;BME280;64176;49.156;7.810;2024-02-21T05:12:42;99838.63;;;3.19;100.00
75594;BME280;64176;49.156;7.810;2024-02-21T05:15:28;99836.50;;;3.10;100.00
75594;BME280;64176;49.156;7.810;2024-02-21T05:18:13;99840.97;;;2.95;100.00
75594;BME280;64176;49.156;7.810;2024-02-21T05:20:57;99835.38;;;2.84;100.00
75594;BME280;64176;49.156;7.810;2024-02-21T05:23:43;99821.59;;;3.00;100.00
75594;BME280;64176;49.156;7.810;2024-02-21T05:26:27;99808.28;;;2.88;100.00
75594;BME280;64176;49.156;7.810;2024-02-21T05:29:12;99811.31;;;2.99;100.00
75594;BME280;64176;49.156;7.810;2024-02-21T05:31:58;99811.47;;;3.02;100.00
75594;BME280;64176;49.156;7.810;2024-02-21T05:34:42;99806.75;;;2.91;100.00
75594;BME280;64176;49.156;7.810;2024-02-21T05:37:27;99810.41;;;2.97;100.00
75594;BME280;64176;49.156;7.810;2024-02-21T05:40:11;99811.53;;;2.84;100.00
75594;BME280;64176;49.156;7.810;2024-02-21T05:42:57;99815.22;;;2.90;100.00
75594;BME280;64176;49.156;7.810;2024-02-21T05:45:41;99814.72;;;2.80;100.00
75594;BME280;64176;49.156;7.810;2024-02-21T05:48:25;99817.63;;;2.87;100.00
75594;BME280;64176;49.156;7.810;2024-02-21T05:51:11;99836.16;;;2.83;100.00
75594;BME280;64176;49.156;7.810;2024-02-21T05:53:56;99821.75;;;2.66;100.00
75594;BME280;64176;49.156;7.810;2024-02-21T05:56:44;99822.13;;;2.74;100.00
75594;BME280;64176;49.156;7.810;2024-02-21T05:59:30;99812.03;;;2.77;100.00
75594;BME280;64176;49.156;7.810;2024-02-21T06:02:17;99806.59;;;2.88;100.00
75594;BME280;64176;49.156;7.810;2024-02-21T06:05:01;99798.44;;;2.96;100.00
75594;BME280;64176;49.156;7.810;2024-02-21T06:07:45;99791.75;;;2.80;100.00
75594;BME280;64176;49.156;7.810;2024-02-21T06:10:29;99777.16;;;2.76;100.00
75594;BME280;64176;49.156;7.810;2024-02-21T06:13:13;99788.75;;;2.88;100.00
75594;BME280;64176;49.156;7.810;2024-02-21T06:15:59;99792.63;;;2.80;100.00
75594;BME280;64176;49.156;7.810;2024-02-21T06:18:46;99791.75;;;2.80;100.00
75594;BME280;64176;49.156;7.810;2024-02-21T06:21:30;99771.41;;;2.81;100.00
75594;BME280;64176;49.156;7.810;2024-02-21T06:24:14;99790.78;;;2.96;100.00
75594;BME280;64176;49.156;7.810;2024-02-21T06:27:02;99789.97;;;2.97;100.00
75594;BME280;64176;49.156;7.810;2024-02-21T06:29:46;99789.63;;;2.89;100.00
75594;BME280;64176;49.156;7.810;2024-02-21T06:32:30;99783.63;;;2.88;100.00
75594;BME280;64176;49.156;7.810;2024-02-21T06:35:17;99778.53;;;2.88;100.00
75594;BME280;64176;49.156;7.810;2024-02-21T06:38:01;99788.19;;;2.76;100.00
75594;BME280;64176;49.156;7.810;2024-02-21T06:40:45;99781.31;;;2.74;100.00
75594;BME280;64176;49.156;7.810;2024-02-21T06:43:33;99792.97;;;2.88;100.00
75594;BME280;64176;49.156;7.810;2024-02-21T06:46:27;99789.91;;;2.95;100.00
75594;BME280;64176;49.156;7.810;2024-02-21T06:49:15;99798.53;;;2.79;100.00
75594;BME280;64176;49.156;7.810;2024-02-21T06:52:02;99783.44;;;2.84;100.00
75594;BME280;64176;49.156;7.810;2024-02-21T06:54:49;99788.34;;;2.79;100.00
75594;BME280;64176;49.156;7.810;2024-02-21T06:57:33;99793.91;;;2.90;100.00
75594;BME280;64176;49.156;7.810;2024-02-21T07:00:19;99792.63;;;2.80;100.00
75594;BME280;64176;49.156;7.810;2024-02-21T07:03:04;99792.63;;;3.00;100.00
75594;BME280;64176;49.156;7.810;2024-02-21T07:05:49;99786.06;;;2.85;100.00
75594;BME280;64176;49.156;7.810;2024-02-21T07:08:33;99773.09;;;2.81;100.00
75594;BME280;64176;49.156;7.810;2024-02-21T07:11:17;99776.72;;;3.05;100.00
75594;BME280;64176;49.156;7.810;2024-02-21T07:14:03;99780.00;;;3.03;100.00
75594;BME280;64176;49.156;7.810;2024-02-21T07:16:49;99774.44;;;3.11;100.00
75594;BME280;64176;49.156;7.810;2024-02-21T07:19:38;99772.16;;;3.17;100.00
75594;BME280;64176;49.156;7.810;2024-02-21T07:22:22;99781.88;;;3.26;100.00
75594;BME280;64176;49.156;7.810;2024-02-21T07:25:09;99781.81;;;3.24;100.00
75594;BME280;64176;49.156;7.810;2024-02-21T07:27:55;99775.75;;;3.22;100.00
75594;BME280;64176;49.156;7.810;2024-02-21T07:30:39;99777.22;;;3.37;100.00
75594;BME280;64176;49.156;7.810;2024-02-21T07:33:23;99772.84;;;3.34;100.00
75594;BME280;64176;49.156;7.810;2024-02-21T07:36:10;99772.84;;;3.34;100.00
75594;BME280;64176;49.156;7.810;2024-02-21T07:38:55;99771.09;;;3.33;100.00
75594;BME280;64176;49.156;7.810;2024-02-21T07:41:39;99766.78;;;3.51;100.00
75594;BME280;64176;49.156;7.810;2024-02-21T07:44:24;99768.34;;;3.69;100.00
75594;BME280;64176;49.156;7.810;2024-02-21T07:47:08;99771.75;;;3.69;100.00
75594;BME280;64176;49.156;7.810;2024-02-21T07:49:52;99760.88;;;3.73;100.00
75594;BME280;64176;49.156;7.810;2024-02-21T07:52:36;99746.06;;;3.66;100.00
75594;BME280;64176;49.156;7.810;2024-02-21T07:55:20;99755.38;;;3.85;100.00
75594;BME280;64176;49.156;7.810;2024-02-21T07:58:04;99751.88;;;3.83;100.00
75594;BME280;64176;49.156;7.810;2024-02-21T08:00:48;99740.19;;;3.89;100.00
75594;BME280;64176;49.156;7.810;2024-02-21T08:03:33;99741.13;;;3.91;100.00
75594;BME280;64176;49.156;7.810;2024-02-21T08:06:17;99740.47;;;3.95;100.00
75594;BME280;64176;49.156;7.810;2024-02-21T08:09:01;99735.91;;;4.11;100.00
75594;BME280;64176;49.156;7.810;2024-02-21T08:11:44;99734.50;;;4.17;100.00
75594;BME280;64176;49.156;7.810;2024-02-21T08:14:31;99729.47;;;4.20;100.00
75594;BME280;64176;49.156;7.810;2024-02-21T08:17:15;99730.66;;;4.28;100.00
75594;BME280;64176;49.156;7.810;2024-02-21T08:19:59;99713.91;;;4.36;100.00
75594;BME280;64176;49.156;7.810;2024-02-21T08:22:43;99717.66;;;4.46;100.00
75594;BME280;64176;49.156;7.810;2024-02-21T08:25:29;99723.94;;;4.54;100.00
75594;BME280;64176;49.156;7.810;2024-02-21T08:28:13;99724.28;;;4.63;100.00
75594;BME280;64176;49.156;7.810;2024-02-21T08:31:00;99716.88;;;4.71;100.00
75594;BME280;64176;49.156;7.810;2024-02-21T08:33:47;99709.56;;;4.82;100.00
75594;BME280;64176;49.156;7.810;2024-02-21T08:36:34;99711.06;;;5.00;100.00
75594;BME280;64176;49.156;7.810;2024-02-21T08:39:18;99716.75;;;5.16;100.00
75594;BME280;64176;49.156;7.810;2024-02-21T08:42:05;99715.34;;;5.25;100.00
75594;BME280;64176;49.156;7.810;2024-02-21T08:44:51;99701.38;;;5.16;100.00
75594;BME280;64176;49.156;7.810;2024-02-21T08:47:35;99709.88;;;5.40;100.00
75594;BME280;64176;49.156;7.810;2024-02-21T08:50:19;99707.91;;;5.58;100.00
75594;BME280;64176;49.156;7.810;2024-02-21T08:53:03;99696.31;;;5.69;100.00
75594;BME280;64176;49.156;7.810;2024-02-21T08:55:47;99698.75;;;5.92;100.00
75594;BME280;64176;49.156;7.810;2024-02-21T08:58:35;99677.59;;;5.99;100.00
75594;BME280;64176;49.156;7.810;2024-02-21T09:01:23;99684.66;;;6.06;100.00
75594;BME280;64176;49.156;7.810;2024-02-21T09:04:07;99680.84;;;6.21;100.00
75594;BME280;64176;49.156;7.810;2024-02-21T09:06:51;99674.88;;;6.22;100.00
75594;BME280;64176;49.156;7.810;2024-02-21T09:09:38;99670.22;;;6.38;100.00
75594;BME280;64176;49.156;7.810;2024-02-21T09:12:26;99672.47;;;6.57;100.00
75594;BME280;64176;49.156;7.810;2024-02-21T09:15:12;99665.19;;;6.72;100.00
75594;BME280;64176;49.156;7.810;2024-02-21T09:17:59;99658.84;;;6.91;100.00
75594;BME280;64176;49.156;7.810;2024-02-21T09:20:43;99646.91;;;6.93;100.00
75594;BME280;64176;49.156;7.810;2024-02-21T09:23:28;99644.44;;;6.98;100.00
75594;BME280;64176;49.156;7.810;2024-02-21T09:26:11;99636.84;;;7.02;100.00
75594;BME280;64176;49.156;7.810;2024-02-21T09:29:03;99645.75;;;7.15;100.00
75594;BME280;64176;49.156;7.810;2024-02-21T09:31:48;99638.13;;;7.19;100.00
75594;BME280;64176;49.156;7.810;2024-02-21T09:34:32;99632.28;;;7.25;100.00
75594;BME280;64176;49.156;7.810;2024-02-21T09:37:16;99628.19;;;7.33;100.00
75594;BME280;64176;49.156;7.810;2024-02-21T09:40:00;99637.81;;;7.42;100.00
75594;BME280;64176;49.156;7.810;2024-02-21T09:42:47;99623.13;;;7.36;100.00
75594;BME280;64176;49.156;7.810;2024-02-21T09:45:31;99628.63;;;7.50;100.00
75594;BME280;64176;49.156;7.810;2024-02-21T09:48:25;99614.97;;;7.54;100.00
75594;BME280;64176;49.156;7.810;2024-02-21T09:51:14;99613.53;;;7.65;100.00
75594;BME280;64176;49.156;7.810;2024-02-21T09:53:59;99607.47;;;7.63;100.00
75594;BME280;64176;49.156;7.810;2024-02-21T09:56:47;99597.56;;;7.80;100.00
75594;BME280;64176;49.156;7.810;2024-02-21T09:59:33;99606.22;;;7.83;100.00
75594;BME280;64176;49.156;7.810;2024-02-21T10:02:22;99588.19;;;7.82;100.00
75594;BME280;64176;49.156;7.810;2024-02-21T10:05:06;99585.84;;;7.92;100.00
75594;BME280;64176;49.156;7.810;2024-02-21T10:07:52;99579.03;;;7.96;100.00
75594;BME280;64176;49.156;7.810;2024-02-21T10:10:45;99587.72;;;8.01;100.00
75594;BME280;64176;49.156;7.810;2024-02-21T10:13:32;99582.06;;;8.17;100.00
75594;BME280;64176;49.156;7.810;2024-02-21T10:16:16;99583.84;;;8.21;100.00
75594;BME280;64176;49.156;7.810;2024-02-21T10:19:01;99578.63;;;8.17;100.00
75594;BME280;64176;49.156;7.810;2024-02-21T10:22:09;99576.19;;;8.24;100.00
75594;BME280;64176;49.156;7.810;2024-02-21T10:25:09;99569.34;;;8.25;100.00
75594;BME280;64176;49.156;7.810;2024-02-21T10:27:54;99560.13;;;8.34;100.00
75594;BME280;64176;49.156;7.810;2024-02-21T10:30:38;99558.34;;;8.32;100.00
75594;BME280;64176;49.156;7.810;2024-02-21T10:33:33;99548.19;;;8.39;100.00
75594;BME280;64176;49.156;7.810;2024-02-21T10:36:16;99552.53;;;8.42;100.00
75594;BME280;64176;49.156;7.810;2024-02-21T10:39:00;99540.38;;;8.35;100.00
75594;BME280;64176;49.156;7.810;2024-02-21T10:41:47;99532.09;;;8.51;100.00
75594;BME280;64176;49.156;7.810;2024-02-21T10:44:41;99531.50;;;8.66;100.00
75594;BME280;64176;49.156;7.810;2024-02-21T10:47:26;99521.88;;;8.56;100.00
75594;BME280;64176;49.156;7.810;2024-02-21T10:50:13;99522.06;;;8.66;100.00
75594;BME280;64176;49.156;7.810;2024-02-21T10:53:29;99523.09;;;8.76;100.00
75594;BME280;64176;49.156;7.810;2024-02-21T10:59:15;99499.84;;;8.73;100.00
75594;BME280;64176;49.156;7.810;2024-02-21T11:02:01;99494.91;;;8.87;100.00
75594;BME280;64176;49.156;7.810;2024-02-21T11:04:45;99494.88;;;8.85;100.00
75594;BME280;64176;49.156;7.810;2024-02-21T11:07:31;99485.41;;;8.83;100.00
75594;BME280;64176;49.156;7.810;2024-02-21T11:10:23;99484.56;;;8.82;100.00
75594;BME280;64176;49.156;7.810;2024-02-21T11:13:13;99483.97;;;9.00;100.00
75594;BME280;64176;49.156;7.810;2024-02-21T11:16:08;99479.53;;;8.91;100.00
75594;BME280;64176;49.156;7.810;2024-02-21T11:19:04;99463.13;;;8.86;100.00
75594;BME280;64176;49.156;7.810;2024-02-21T11:21:49;99464.22;;;9.02;100.00
75594;BME280;64176;49.156;7.810;2024-02-21T11:24:33;99461.88;;;9.16;100.00
75594;BME280;64176;49.156;7.810;2024-02-21T11:27:22;99464.50;;;9.20;100.00
75594;BME280;64176;49.156;7.810;2024-02-21T11:30:11;99451.66;;;9.23;100.00
75594;BME280;64176;49.156;7.810;2024-02-21T11:33:03;99448.28;;;9.27;100.00
75594;BME280;64176;49.156;7.810;2024-02-21T11:35:50;99444.75;;;9.22;100.00
75594;BME280;64176;49.156;7.810;2024-02-21T11:38:35;99436.22;;;9.26;100.00
75594;BME280;64176;49.156;7.810;2024-02-21T11:41:19;99437.22;;;9.36;100.00
75594;BME280;64176;49.156;7.810;2024-02-21T11:44:07;99426.06;;;9.38;100.00
75594;BME280;64176;49.156;7.810;2024-02-21T11:46:53;99419.13;;;9.34;100.00
75594;BME280;64176;49.156;7.810;2024-02-21T11:49:46;99415.75;;;9.40;100.00
75594;BME280;64176;49.156;7.810;2024-02-21T11:52:33;99397.69;;;9.37;100.00
75594;BME280;64176;49.156;7.810;2024-02-21T11:55:17;99404.63;;;9.44;100.00
75594;BME280;64176;49.156;7.810;2024-02-21T11:58:03;99392.78;;;9.60;100.00
75594;BME280;64176;49.156;7.810;2024-02-21T12:00:48;99391.00;;;9.54;100.00
75594;BME280;64176;49.156;7.810;2024-02-21T12:03:32;99384.13;;;9.56;100.00
75594;BME280;64176;49.156;7.810;2024-02-21T12:06:20;99379.91;;;9.63;100.00
75594;BME280;64176;49.156;7.810;2024-02-21T12:09:07;99369.59;;;9.64;100.00
75594;BME280;64176;49.156;7.810;2024-02-21T12:11:59;99378.31;;;9.75;100.00
75594;BME280;64176;49.156;7.810;2024-02-21T12:14:43;99366.22;;;9.68;99.08
75594;BME280;64176;49.156;7.810;2024-02-21T12:17:27;99357.66;;;9.74;99.76
75594;BME280;64176;49.156;7.810;2024-02-21T12:20:11;99353.34;;;9.73;99.80
75594;BME280;64176;49.156;7.810;2024-02-21T12:22:55;99345.66;;;9.77;100.00
75594;BME280;64176;49.156;7.810;2024-02-21T12:25:39;99343.84;;;9.67;98.18
75594;BME280;64176;49.156;7.810;2024-02-21T12:28:23;99336.13;;;9.70;98.88
75594;BME280;64176;49.156;7.810;2024-02-21T12:31:07;99327.59;;;9.77;99.43
75594;BME280;64176;49.156;7.810;2024-02-21T12:33:51;99320.69;;;9.75;95.38
75594;BME280;64176;49.156;7.810;2024-02-21T12:36:44;99315.53;;;9.76;98.38
75594;BME280;64176;49.156;7.810;2024-02-21T12:39:30;99305.25;;;9.79;97.95
75594;BME280;64176;49.156;7.810;2024-02-21T12:42:15;99298.38;;;9.80;96.12
75594;BME280;64176;49.156;7.810;2024-02-21T12:45:02;99299.25;;;9.80;96.03
75594;BME280;64176;49.156;7.810;2024-02-21T12:47:47;99282.91;;;9.81;93.66
75594;BME280;64176;49.156;7.810;2024-02-21T12:50:36;99281.16;;;9.79;94.37
75594;BME280;64176;49.156;7.810;2024-02-21T12:53:25;99277.72;;;9.78;94.29
75594;BME280;64176;49.156;7.810;2024-02-21T12:56:10;99257.03;;;9.77;94.99
75594;BME280;64176;49.156;7.810;2024-02-21T12:59:00;99253.59;;;9.76;93.62
75594;BME280;64176;49.156;7.810;2024-02-21T13:01:46;99242.47;;;9.80;95.14
75594;BME280;64176;49.156;7.810;2024-02-21T13:04:30;99231.22;;;9.75;94.24
75594;BME280;64176;49.156;7.810;2024-02-21T13:07:14;99219.16;;;9.73;94.65
75594;BME280;64176;49.156;7.810;2024-02-21T13:09:58;99226.13;;;9.81;94.39
75594;BME280;64176;49.156;7.810;2024-02-21T13:12:42;99225.19;;;9.75;91.75
75594;BME280;64176;49.156;7.810;2024-02-21T13:15:26;99216.56;;;9.73;91.42
75594;BME280;64176;49.156;7.810;2024-02-21T13:18:12;99207.09;;;9.69;90.88
75594;BME280;64176;49.156;7.810;2024-02-21T13:20:56;99198.50;;;9.73;90.64
75594;BME280;64176;49.156;7.810;2024-02-21T13:23:43;99200.25;;;9.75;91.92
75594;BME280;64176;49.156;7.810;2024-02-21T13:26:30;99190.81;;;9.77;90.53
75594;BME280;64176;49.156;7.810;2024-02-21T13:29:14;99193.38;;;9.77;89.14
75594;BME280;64176;49.156;7.810;2024-02-21T13:31:58;99188.19;;;9.74;87.66
75594;BME280;64176;49.156;7.810;2024-02-21T13:34:44;99174.50;;;9.81;88.53
75594;BME280;64176;49.156;7.810;2024-02-21T13:37:29;99165.88;;;9.79;89.97
75594;BME280;64176;49.156;7.810;2024-02-21T13:40:13;99157.28;;;9.80;89.61
75594;BME280;64176;49.156;7.810;2024-02-21T13:42:57;99153.00;;;9.85;88.21
75594;BME280;64176;49.156;7.810;2024-02-21T13:45:56;99141.81;;;9.85;89.51
75594;BME280;64176;49.156;7.810;2024-02-21T13:48:40;99135.81;;;9.83;89.85
75594;BME280;64176;49.156;7.810;2024-02-21T13:51:24;99132.34;;;9.85;91.02
75594;BME280;64176;49.156;7.810;2024-02-21T13:54:10;99132.38;;;9.82;90.11
75594;BME280;64176;49.156;7.810;2024-02-21T13:56:55;99127.16;;;9.79;90.28
75594;BME280;64176;49.156;7.810;2024-02-21T13:59:40;99113.41;;;9.79;89.62
75594;BME280;64176;49.156;7.810;2024-02-21T14:02:26;99109.94;;;9.77;89.92
75594;BME280;64176;49.156;7.810;2024-02-21T14:05:13;99112.53;;;9.78;90.33
75594;BME280;64176;49.156;7.810;2024-02-21T14:07:59;99102.19;;;9.77;89.59
75594;BME280;64176;49.156;7.810;2024-02-21T14:10:43;99097.88;;;9.76;90.39
75594;BME280;64176;49.156;7.810;2024-02-21T14:13:27;99101.31;;;9.75;91.00
75594;BME280;64176;49.156;7.810;2024-02-21T14:16:12;99088.41;;;9.73;91.25
75594;BME280;64176;49.156;7.810;2024-02-21T14:18:59;99076.38;;;9.74;91.85
75594;BME280;64176;49.156;7.810;2024-02-21T14:21:43;99070.34;;;9.73;91.67
75594;BME280;64176;49.156;7.810;2024-02-21T14:24:28;99071.19;;;9.68;91.99
75594;BME280;64176;49.156;7.810;2024-02-21T14:27:12;99070.34;;;9.70;93.23
75594;BME280;64176;49.156;7.810;2024-02-21T14:29:59;99064.28;;;9.64;91.40
75594;BME280;64176;49.156;7.810;2024-02-21T14:32:44;99059.97;;;9.63;93.42
75594;BME280;64176;49.156;7.810;2024-02-21T14:35:29;99063.44;;;9.66;94.46
75594;BME280;64176;49.156;7.810;2024-02-21T14:38:15;99058.25;;;9.60;94.19
75594;BME280;64176;49.156;7.810;2024-02-21T14:40:59;99047.03;;;9.55;95.22